createdAt,value
2018-07-24T00:04:47.039Z,23.8
2018-07-24T00:09:46.863Z,23.7
2018-07-24T00:14:46.967Z,23.7
2018-07-24T00:19:46.856Z,23.7
2018-07-24T00:24:46.947Z,23.7
2018-07-24T00:29:46.906Z,23.6
2018-07-24T00:34:46.948Z,23.5
2018-07-24T00:39:46.745Z,23.5
2018-07-24T00:44:46.824Z,23.5
2018-07-24T00:49:46.797Z,23.4
2018-07-24T00:54:46.684Z,23.4
2018-07-24T00:59:46.866Z,23.3
2018-07-24T01:04:46.839Z,23.2
2018-07-24T01:09:46.818Z,23.2
2018-07-24T01:14:46.695Z,23.1
2018-07-24T01:19:46.827Z,23.2
2018-07-24T01:24:46.666Z,23.1
2018-07-24T01:29:46.675Z,23.1
2018-07-24T01:34:46.750Z,23.1
2018-07-24T01:39:46.683Z,23.1
2018-07-24T01:44:46.818Z,23
2018-07-24T01:49:46.853Z,23
2018-07-24T01:54:46.594Z,22.9
2018-07-24T01:59:46.710Z,22.9
2018-07-24T02:04:46.942Z,22.8
2018-07-24T02:09:46.855Z,22.8
2018-07-24T02:14:46.818Z,22.8
2018-07-24T02:19:46.773Z,22.7
2018-07-24T02:24:46.868Z,22.7
2018-07-24T02:29:46.901Z,22.7
2018-07-24T02:34:46.929Z,22.7
2018-07-24T02:39:46.605Z,22.7
2018-07-24T02:44:46.809Z,22.7
2018-07-24T02:49:46.730Z,22.6
2018-07-24T02:54:46.709Z,22.6
2018-07-24T02:59:46.744Z,22.6
2018-07-24T03:04:46.805Z,22.6
2018-07-24T03:09:46.849Z,22.5
2018-07-24T03:14:46.606Z,22.4
2018-07-24T03:19:46.846Z,22.4
2018-07-24T03:24:46.824Z,22.4
2018-07-24T03:29:46.703Z,22.4
2018-07-24T03:34:46.566Z,22.4
2018-07-24T03:39:46.705Z,22.3
2018-07-24T03:44:46.749Z,22.3
2018-07-24T03:49:46.563Z,22.3
2018-07-24T03:54:46.788Z,22.3
2018-07-24T03:59:46.541Z,22.3
2018-07-24T04:04:46.589Z,22.2
2018-07-24T04:09:46.576Z,22.2
2018-07-24T04:14:46.795Z,22.1
2018-07-24T04:19:46.656Z,22.1
2018-07-24T04:24:46.408Z,22
2018-07-24T04:29:46.716Z,22
2018-07-24T04:34:46.579Z,22
2018-07-24T04:39:46.511Z,22
2018-07-24T04:44:46.528Z,22
2018-07-24T04:49:46.615Z,22
2018-07-24T04:54:46.561Z,22
2018-07-24T04:59:46.438Z,22
2018-07-24T05:04:46.499Z,22.1
2018-07-24T05:09:46.679Z,22.1
2018-07-24T05:14:46.631Z,22.1
2018-07-24T05:19:46.284Z,22.2
2018-07-24T05:24:46.493Z,22.2
2018-07-24T05:29:46.513Z,22.3
2018-07-24T05:34:46.309Z,22.4
2018-07-24T05:39:46.327Z,22.4
2018-07-24T05:44:46.289Z,22.5
2018-07-24T05:49:46.495Z,22.6
2018-07-24T05:54:46.322Z,22.7
2018-07-24T05:59:46.328Z,22.8
2018-07-24T06:04:46.643Z,22.9
2018-07-24T06:09:46.298Z,22.9
2018-07-24T06:14:46.356Z,23
2018-07-24T06:19:46.484Z,23.1
2018-07-24T06:24:46.575Z,23.2
2018-07-24T06:29:46.522Z,23.3
2018-07-24T06:34:46.478Z,23.4
2018-07-24T06:39:46.451Z,23.5
2018-07-24T06:44:46.510Z,23.5
2018-07-24T06:49:46.420Z,23.7
2018-07-24T06:54:46.454Z,24
2018-07-24T06:59:46.156Z,24.2
2018-07-24T07:04:46.197Z,24.4
2018-07-24T07:09:46.139Z,24.6
2018-07-24T07:14:46.077Z,24.7
2018-07-24T07:19:46.407Z,24.8
2018-07-24T07:24:46.172Z,24.9
2018-07-24T07:29:46.146Z,25
2018-07-24T07:34:46.374Z,25.1
2018-07-24T07:39:46.386Z,25.2
2018-07-24T07:44:46.222Z,25.3
2018-07-24T07:49:46.384Z,25.4
2018-07-24T07:54:46.176Z,25.5
2018-07-24T07:59:46.119Z,25.5
2018-07-24T08:04:46.056Z,25.6
2018-07-24T08:09:46.296Z,25.6
2018-07-24T08:14:46.318Z,25.6
2018-07-24T08:19:46.020Z,25.6
2018-07-24T08:24:46.336Z,25.6
2018-07-24T08:29:46.146Z,26.2
2018-07-24T08:34:46.039Z,26.2
2018-07-24T08:39:45.992Z,26.5
2018-07-24T08:44:46.339Z,26.6
2018-07-24T08:49:46.140Z,26.7
2018-07-24T08:54:46.637Z,26.7
2018-07-24T08:59:46.025Z,27
2018-07-24T09:04:46.142Z,27.2
2018-07-24T09:09:46.053Z,27.2
2018-07-24T09:14:46.119Z,27.4
2018-07-24T09:19:46.023Z,27.5
2018-07-24T09:24:46.051Z,27.6
2018-07-24T09:29:45.968Z,27.6
2018-07-24T09:34:46.125Z,28
2018-07-24T09:39:46.077Z,28
2018-07-24T09:44:46.189Z,28.1
2018-07-24T09:49:46.139Z,28.3
2018-07-24T09:54:45.898Z,28.3
2018-07-24T09:59:45.899Z,28.7
2018-07-24T10:04:46.099Z,28.8
2018-07-24T10:09:45.899Z,28.9
2018-07-24T10:14:46.071Z,29
2018-07-24T10:19:46.045Z,29
2018-07-24T10:24:46.206Z,29.2
2018-07-24T10:29:45.913Z,29.2
2018-07-24T10:34:45.926Z,29
2018-07-24T10:39:46.493Z,29
2018-07-24T10:44:46.032Z,29
2018-07-24T10:49:46.091Z,28.8
2018-07-24T10:54:45.781Z,28.8
2018-07-24T10:59:45.972Z,28.7
2018-07-24T11:04:45.862Z,29
2018-07-24T11:09:45.826Z,28.9
2018-07-24T11:14:45.755Z,28.9
2018-07-24T11:19:45.820Z,28.9
2018-07-24T11:24:45.853Z,30.1
2018-07-24T11:29:45.731Z,30.3
2018-07-24T11:34:45.857Z,30.6
2018-07-24T11:39:45.725Z,30.9
2018-07-24T11:44:45.811Z,31
2018-07-24T11:49:45.760Z,31.1
2018-07-24T11:54:45.992Z,31.1
2018-07-24T11:59:46.029Z,31.1
2018-07-24T12:04:45.986Z,30.6
2018-07-24T12:09:45.864Z,30.5
2018-07-24T12:14:45.680Z,30.5
2018-07-24T12:19:45.827Z,30.5
2018-07-24T12:24:45.668Z,30.9
2018-07-24T12:29:45.907Z,30.6
2018-07-24T12:34:45.954Z,30.6
2018-07-24T12:39:45.749Z,30.9
2018-07-24T12:44:45.866Z,31.2
2018-07-24T12:49:45.591Z,31.4
2018-07-24T12:54:45.710Z,31.3
2018-07-24T12:59:45.703Z,31
2018-07-24T13:04:45.748Z,30.9
2018-07-24T13:09:45.679Z,30.8
2018-07-24T13:14:45.692Z,30.8
2018-07-24T13:19:45.788Z,30.8
2018-07-24T13:24:45.572Z,30.6
2018-07-24T13:29:45.555Z,30.6
2018-07-24T13:34:45.664Z,30.6
2018-07-24T13:39:45.693Z,30.7
2018-07-24T13:44:45.861Z,31.3
2018-07-24T13:49:45.515Z,31.3
2018-07-24T13:54:45.656Z,31.3
2018-07-24T13:59:45.539Z,31.3
2018-07-24T14:04:45.660Z,32.3
2018-07-24T14:09:45.599Z,32.3
2018-07-24T14:14:45.518Z,32.3
2018-07-24T14:19:45.654Z,32.5
2018-07-24T14:24:45.773Z,32.6
2018-07-24T14:29:45.524Z,32.5
2018-07-24T14:34:45.803Z,32.4
2018-07-24T14:39:45.738Z,32.4
2018-07-24T14:44:45.613Z,32.5
2018-07-24T14:49:45.506Z,32.6
2018-07-24T14:54:45.504Z,32.6
2018-07-24T14:59:45.793Z,32.6
2018-07-24T15:04:45.676Z,32.5
2018-07-24T15:09:45.660Z,32.4
2018-07-24T15:14:45.403Z,32.4
2018-07-24T15:19:45.525Z,32.3
2018-07-24T15:24:45.744Z,32.2
2018-07-24T15:29:45.609Z,32.1
2018-07-24T15:34:45.664Z,32.2
2018-07-24T15:39:45.523Z,32.1
2018-07-24T15:44:45.424Z,31.9
2018-07-24T15:49:45.385Z,31.9
2018-07-24T15:54:45.618Z,31.9
2018-07-24T15:59:45.627Z,31.7
2018-07-24T16:04:45.326Z,31.6
2018-07-24T16:09:45.347Z,31.4
2018-07-24T16:14:45.324Z,31.3
2018-07-24T16:19:45.457Z,31.1
2018-07-24T16:24:45.651Z,31.1
2018-07-24T16:29:45.633Z,31
2018-07-24T16:34:45.617Z,31
2018-07-24T16:39:45.555Z,30.6
2018-07-24T16:44:45.519Z,30.6
2018-07-24T16:49:45.373Z,30.5
2018-07-24T16:54:45.333Z,30.5
2018-07-24T16:59:45.312Z,30.3
2018-07-24T17:04:45.535Z,30.3
2018-07-24T17:09:45.352Z,30.2
2018-07-24T17:14:45.402Z,30.1
2018-07-24T17:19:45.367Z,30
2018-07-24T17:24:45.383Z,29.8
2018-07-24T17:29:45.369Z,29.7
2018-07-24T17:34:45.171Z,29.7
2018-07-24T17:39:45.226Z,29.6
2018-07-24T17:44:45.515Z,29.5
2018-07-24T17:49:45.202Z,29.4
2018-07-24T17:54:45.433Z,29.3
2018-07-24T17:59:45.336Z,29.2
2018-07-24T18:04:45.489Z,29.2
2018-07-24T18:09:45.368Z,29.1
2018-07-24T18:14:45.481Z,29.1
2018-07-24T18:19:45.186Z,29
2018-07-24T18:24:45.177Z,29
2018-07-24T18:29:45.133Z,29
2018-07-24T18:34:45.254Z,28.6
2018-07-24T18:39:45.091Z,28.5
2018-07-24T18:44:45.093Z,28.4
2018-07-24T18:49:45.135Z,28.4
2018-07-24T18:54:45.042Z,28.4
2018-07-24T18:59:45.274Z,28.2
2018-07-24T19:04:45.317Z,28.2
2018-07-24T19:09:45.374Z,28
2018-07-24T19:14:45.051Z,28
2018-07-24T19:19:45.371Z,27.8
2018-07-24T19:24:45.113Z,27.7
2018-07-24T19:29:45.297Z,27.5
2018-07-24T19:34:45.354Z,27.5
2018-07-24T19:39:45.288Z,27.4
2018-07-24T19:44:45.298Z,27.4
2018-07-24T19:49:45.153Z,27.4
2018-07-24T19:54:45.239Z,27
2018-07-24T19:59:44.989Z,26.9
2018-07-24T20:04:45.055Z,26.9
2018-07-24T20:09:45.243Z,26.7
2018-07-24T20:14:45.187Z,26.7
2018-07-24T20:19:45.252Z,26.7
2018-07-24T20:24:45.016Z,26.5
2018-07-24T20:29:45.109Z,26.4
2018-07-24T20:34:44.940Z,26.4
2018-07-24T20:39:44.963Z,26.3
2018-07-24T20:44:45.081Z,26.2
2018-07-24T20:49:44.901Z,26.1
2018-07-24T20:54:45.162Z,26
2018-07-24T20:59:45.175Z,25.9
2018-07-24T21:04:44.900Z,25.9
2018-07-24T21:09:44.867Z,25.8
2018-07-24T21:14:44.844Z,25.9
2018-07-24T21:19:44.969Z,25.7
2018-07-24T21:24:44.995Z,25.7
2018-07-24T21:29:45.112Z,25.7
2018-07-24T21:34:44.922Z,25.6
2018-07-24T21:39:44.834Z,25.6
2018-07-24T21:44:45.055Z,25.5
2018-07-24T21:49:45.083Z,25.5
2018-07-24T21:54:44.846Z,25.4
2018-07-24T21:59:44.897Z,25.4
2018-07-24T22:04:45.158Z,25.3
2018-07-24T22:09:44.830Z,25.3
2018-07-24T22:14:45.067Z,25.3
2018-07-24T22:19:45.068Z,25.3
2018-07-24T22:24:44.714Z,25.1
2018-07-24T22:29:44.957Z,25
2018-07-24T22:34:44.756Z,25
2018-07-24T22:39:45.191Z,24.9
2018-07-24T22:44:44.715Z,24.8
2018-07-24T22:49:44.991Z,24.8
2018-07-24T22:54:44.776Z,24.8
2018-07-24T22:59:44.710Z,24.8
2018-07-24T23:04:44.752Z,24.7
2018-07-24T23:09:44.918Z,24.7
2018-07-24T23:14:44.883Z,24.7
2018-07-24T23:19:44.726Z,24.7
2018-07-24T23:24:44.815Z,24.6
2018-07-24T23:29:44.720Z,24.7
2018-07-24T23:34:44.927Z,24.7
2018-07-24T23:39:44.764Z,24.6
2018-07-24T23:44:44.892Z,24.6
2018-07-24T23:49:44.719Z,24.6
2018-07-24T23:54:44.678Z,24.6
2018-07-24T23:59:44.677Z,24.6
